createdAt,value
2023-02-11T00:04:53.352Z,103191.09
2023-02-11T00:09:53.696Z,103163.81
2023-02-11T00:14:54.367Z,103133.28
2023-02-11T00:19:52.802Z,103193.75
2023-02-11T00:24:50.937Z,103131.59
2023-02-11T00:29:49.884Z,103182.72
2023-02-11T00:34:52.688Z,103129.88
2023-02-11T00:39:50.511Z,103143.44
2023-02-11T00:44:52.108Z,103081.31
2023-02-11T00:49:51.483Z,103114.50
2023-02-11T00:54:54.378Z,103085.59
2023-02-11T00:59:56.611Z,103118.81
2023-02-11T01:04:55.190Z,103157.16
2023-02-11T01:09:54.652Z,103078.13
2023-02-11T01:14:56.906Z,103123.94
2023-02-11T01:19:58.809Z,103136.66
2023-02-11T01:24:57.717Z,103112.84
2023-02-11T01:29:59.980Z,103123.94
2023-02-11T01:35:01.054Z,103147.75
2023-02-11T01:39:59.816Z,103126.47
2023-02-11T01:45:04.450Z,103134.97
2023-02-11T01:50:02.896Z,103086.50
2023-02-11T01:55:24.545Z,103099.28
2023-02-11T02:00:30.455Z,103108.56
2023-02-11T02:05:46.984Z,103109.50
2023-02-11T02:10:47.267Z,103082.28
2023-02-11T02:16:03.871Z,103101.88
2023-02-11T02:21:24.762Z,103157.13
2023-02-11T02:26:38.907Z,103163.16
2023-02-11T02:31:48.155Z,103157.88
2023-02-11T02:37:17.866Z,103098.28
2023-02-11T02:42:20.111Z,103119.59
2023-02-11T02:47:20.663Z,103064.28
2023-02-11T02:53:04.387Z,103134.16
2023-02-11T02:58:26.009Z,103131.47
2023-02-11T03:03:44.041Z,103130.53
2023-02-11T03:08:53.902Z,103069.25
2023-02-11T03:13:55.396Z,103117.69
2023-02-11T03:18:59.801Z,103077.78
2023-02-11T03:24:29.066Z,103103.25
2023-02-11T03:30:06.671Z,103033.50
2023-02-11T03:35:50.158Z,103101.69
2023-02-11T03:40:57.941Z,103095.66
2023-02-11T03:46:00.215Z,103067.63
2023-02-11T03:51:03.745Z,103094.78
2023-02-11T03:56:15.000Z,103035.09
2023-02-11T04:01:17.891Z,103066.56
2023-02-11T04:06:19.156Z,103086.09
2023-02-11T04:11:18.148Z,103010.44
2023-02-11T04:16:20.620Z,103041.16
2023-02-11T04:21:24.533Z,103059.91
2023-02-11T04:26:22.946Z,103059.88
2023-02-11T04:31:22.160Z,103062.47
2023-02-11T04:36:23.922Z,103047.97
2023-02-11T04:41:22.481Z,103045.38
2023-02-11T04:46:22.517Z,103054.88
2023-02-11T04:51:23.748Z,103070.06
2023-02-11T04:56:25.053Z,103035.25
2023-02-11T05:01:26.696Z,103015.00
2023-02-11T05:06:27.519Z,103064.28
2023-02-11T05:11:29.645Z,103034.50
2023-02-11T05:16:30.034Z,103076.16
2023-02-11T05:21:30.769Z,103041.09
2023-02-11T05:26:31.222Z,103054.75
2023-02-11T05:31:32.807Z,103068.28
2023-02-11T05:36:33.832Z,103036.91
2023-02-11T05:41:35.129Z,103056.63
2023-02-11T05:46:36.457Z,103091.63
2023-02-11T05:51:39.186Z,103100.84
2023-02-11T05:56:37.810Z,103086.22
2023-02-11T06:01:38.228Z,103116.97
2023-02-11T06:06:39.269Z,103140.69
2023-02-11T06:11:40.214Z,103106.00
2023-02-11T06:16:39.572Z,103071.13
2023-02-11T06:21:44.186Z,103094.22
2023-02-11T06:26:41.826Z,103086.63
2023-02-11T06:31:43.050Z,103094.41
2023-02-11T06:36:44.577Z,103104.63
2023-02-11T06:41:46.348Z,103084.22
2023-02-11T06:46:44.662Z,103040.78
2023-02-11T06:51:46.516Z,103119.91
2023-02-11T06:56:47.487Z,103102.94
2023-02-11T07:01:46.437Z,103070.63
2023-02-11T07:06:49.473Z,103036.63
2023-02-11T07:11:50.775Z,103116.53
2023-02-11T07:16:53.372Z,103077.44
2023-02-11T07:21:53.108Z,103074.03
2023-02-11T07:26:51.353Z,103040.88
2023-02-11T07:31:49.054Z,103085.91
2023-02-11T07:36:50.551Z,103037.44
2023-02-11T07:41:49.391Z,103055.28
2023-02-11T07:46:49.836Z,103057.78
2023-02-11T07:51:51.094Z,103052.59
2023-02-11T07:56:51.157Z,103054.19
2023-02-11T08:01:53.634Z,103048.97
2023-02-11T08:06:58.972Z,103010.69
2023-02-11T08:11:57.877Z,103011.47
2023-02-11T08:16:55.297Z,103036.81
2023-02-11T08:22:07.710Z,103028.13
2023-02-11T08:27:07.110Z,102998.44
2023-02-11T08:32:08.285Z,103041.53
2023-02-11T08:37:05.699Z,103005.78
2023-02-11T08:42:03.878Z,103034.31
2023-02-11T08:47:04.698Z,103035.72
2023-02-11T08:52:13.029Z,103012.66
2023-02-11T08:57:14.058Z,103005.84
2023-02-11T09:02:15.554Z,103014.16
2023-02-11T09:07:16.089Z,103024.03
2023-02-11T09:12:17.235Z,103023.00
2023-02-11T09:17:17.895Z,103038.41
2023-02-11T09:22:16.542Z,102992.47
2023-02-11T09:27:21.133Z,102983.09
2023-02-11T09:32:23.165Z,102979.53
2023-02-11T09:37:24.634Z,102969.63
2023-02-11T09:42:48.913Z,103008.22
2023-02-11T09:47:55.037Z,102978.50
2023-02-11T09:53:06.548Z,102995.19
2023-02-11T09:58:31.042Z,102950.91
2023-02-11T10:03:56.765Z,102980.09
2023-02-11T10:09:07.497Z,102964.28
2023-02-11T10:14:30.111Z,102954.84
2023-02-11T10:20:09.471Z,102935.66
2023-02-11T10:25:30.957Z,102892.53
2023-02-11T10:30:35.603Z,102898.00
2023-02-11T10:35:36.396Z,102885.69
2023-02-11T10:40:39.563Z,102904.13
2023-02-11T10:45:40.981Z,102869.53
2023-02-11T10:50:39.442Z,102885.28
2023-02-11T10:55:40.204Z,102853.25
2023-02-11T11:00:43.136Z,102848.03
2023-02-11T11:06:12.362Z,102861.84
2023-02-11T11:11:15.431Z,102820.09
2023-02-11T11:16:26.221Z,102834.16
2023-02-11T11:21:36.586Z,102814.59
2023-02-11T11:26:46.587Z,102823.28
2023-02-11T11:32:01.550Z,102820.56
2023-02-11T11:37:27.520Z,102806.50
2023-02-11T11:42:28.374Z,102804.13
2023-02-11T11:47:53.509Z,102790.38
2023-02-11T11:53:05.061Z,102750.94
2023-02-11T12:03:50.525Z,102752.91
2023-02-11T12:15:07.254Z,102694.88
2023-02-11T12:20:24.140Z,102716.25
2023-02-11T12:25:50.336Z,102676.81
2023-02-11T12:31:21.586Z,102664.56
2023-02-11T12:36:46.778Z,102691.81
2023-02-11T12:42:25.488Z,102659.16
2023-02-11T12:47:36.436Z,102686.50
2023-02-11T12:52:40.390Z,102675.81
2023-02-11T12:57:44.431Z,102650.53
2023-02-11T13:03:02.376Z,102652.16
2023-02-11T13:08:23.801Z,102639.78
2023-02-11T13:14:13.069Z,102621.34
2023-02-11T13:19:18.021Z,102628.00
2023-02-11T13:24:37.691Z,102587.97
2023-02-11T13:30:34.876Z,102603.53
2023-02-11T13:35:39.107Z,102576.94
2023-02-11T13:40:40.659Z,102587.03
2023-02-11T13:45:44.719Z,102543.94
2023-02-11T13:50:52.106Z,102576.84
2023-02-11T13:55:54.416Z,102546.63
2023-02-11T14:01:05.310Z,102553.44
2023-02-11T14:06:30.826Z,102574.19
2023-02-11T14:11:42.117Z,102571.81
2023-02-11T14:17:08.483Z,102526.97
2023-02-11T14:22:18.899Z,102566.84
2023-02-11T14:28:05.627Z,102529.28
2023-02-11T14:33:22.904Z,102546.84
2023-02-11T14:38:39.058Z,102553.09
2023-02-11T14:44:03.234Z,102491.19
2023-02-11T14:49:07.338Z,102497.03
2023-02-11T14:54:16.857Z,102462.63
2023-02-11T14:59:20.340Z,102503.47
2023-02-11T15:04:40.737Z,102501.28
2023-02-11T15:09:45.296Z,102482.09
2023-02-11T15:14:54.285Z,102485.81
2023-02-11T15:19:59.504Z,102476.88
2023-02-11T15:25:05.867Z,102434.84
2023-02-11T15:30:25.177Z,102447.41
2023-02-11T15:35:30.475Z,102443.94
2023-02-11T15:40:38.507Z,102463.38
2023-02-11T15:45:59.441Z,102457.34
2023-02-11T15:51:42.732Z,102488.56
2023-02-11T15:57:01.713Z,102457.13
2023-02-11T16:02:26.123Z,102446.63
2023-02-11T16:08:03.579Z,102480.16
2023-02-11T16:13:25.352Z,102475.94
2023-02-11T16:18:39.802Z,102421.50
2023-02-11T16:23:43.571Z,102486.56
2023-02-11T16:28:44.150Z,102419.63
2023-02-11T16:33:47.587Z,102421.09
2023-02-11T16:38:46.924Z,102418.97
2023-02-11T16:43:56.303Z,102411.81
2023-02-11T16:49:11.646Z,102430.88
2023-02-11T16:54:16.716Z,102427.31
2023-02-11T16:59:17.143Z,102417.84
2023-02-11T17:04:26.817Z,102434.72
2023-02-11T17:09:30.240Z,102401.38
2023-02-11T17:14:30.147Z,102418.22
2023-02-11T17:19:28.420Z,102397.28
2023-02-11T17:24:28.982Z,102425.44
2023-02-11T17:29:31.105Z,102414.19
2023-02-11T17:34:33.199Z,102462.41
2023-02-11T17:39:33.640Z,102395.81
2023-02-11T17:44:35.174Z,102422.84
2023-02-11T17:49:33.998Z,102412.28
2023-02-11T17:54:38.585Z,102436.00
2023-02-11T17:59:44.845Z,102386.41
2023-02-11T18:04:46.730Z,102407.19
2023-02-11T18:09:44.262Z,102384.88
2023-02-11T18:14:42.436Z,102386.88
2023-02-11T18:19:40.853Z,102428.44
2023-02-11T18:24:44.423Z,102414.84
2023-02-11T18:29:44.284Z,102374.41
2023-02-11T18:34:46.914Z,102394.88
2023-02-11T18:39:48.456Z,102371.34
2023-02-11T18:44:46.502Z,102387.91
2023-02-11T18:49:49.078Z,102390.94
2023-02-11T18:54:52.608Z,102387.13
2023-02-11T18:59:54.081Z,102377.63
2023-02-11T19:04:54.041Z,102366.19
2023-02-11T19:10:04.317Z,102351.41
2023-02-11T19:15:08.514Z,102355.69
2023-02-11T19:20:09.522Z,102342.09
2023-02-11T19:25:08.626Z,102297.19
2023-02-11T19:30:10.882Z,102331.41
2023-02-11T19:35:13.546Z,102286.59
2023-02-11T19:40:20.425Z,102299.81
2023-02-11T19:45:23.709Z,102297.91
2023-02-11T19:50:25.436Z,102282.06
2023-02-11T19:55:25.081Z,102295.22
2023-02-11T20:00:25.833Z,102293.34
2023-02-11T20:05:29.216Z,102257.72
2023-02-11T20:10:34.591Z,102257.59
2023-02-11T20:15:35.203Z,102273.97
2023-02-11T20:20:34.034Z,102261.47
2023-02-11T20:25:34.279Z,102256.06
2023-02-11T20:30:36.235Z,102230.69
2023-02-11T20:35:38.878Z,102230.13
2023-02-11T20:40:40.664Z,102213.50
2023-02-11T20:45:41.579Z,102192.84
2023-02-11T20:50:45.970Z,102202.72
2023-02-11T20:55:47.913Z,102204.63
2023-02-11T21:00:45.955Z,102179.50
2023-02-11T21:05:46.087Z,102190.78
2023-02-11T21:10:44.076Z,102187.84
2023-02-11T21:15:45.264Z,102193.81
2023-02-11T21:20:46.700Z,102172.34
2023-02-11T21:26:02.816Z,102170.19
2023-02-11T21:31:06.098Z,102148.34
2023-02-11T21:36:16.185Z,102155.47
2023-02-11T21:41:22.742Z,102155.22
2023-02-11T21:46:22.979Z,102140.88
2023-02-11T21:51:36.056Z,102156.72
2023-02-11T21:56:37.525Z,102200.75
2023-02-11T22:01:41.228Z,102199.91
2023-02-11T22:06:55.631Z,102210.09
2023-02-11T22:11:54.808Z,102201.00
2023-02-11T22:16:55.840Z,102193.56
2023-02-11T22:21:59.368Z,102173.31
2023-02-11T22:27:26.353Z,102191.91
2023-02-11T22:32:27.666Z,102141.72
2023-02-11T22:37:53.906Z,102176.75
2023-02-11T22:42:54.733Z,102146.50
2023-02-11T22:53:14.776Z,102148.50
2023-02-11T22:58:18.987Z,102127.03
2023-02-11T23:03:20.856Z,102128.94
2023-02-11T23:08:23.378Z,102109.94
2023-02-11T23:13:29.944Z,102126.47
2023-02-11T23:18:32.983Z,102113.22
2023-02-11T23:23:33.640Z,102084.31
2023-02-11T23:28:36.234Z,102092.78
2023-02-11T23:33:36.028Z,102061.97
2023-02-11T23:38:35.742Z,102070.00
2023-02-11T23:43:37.766Z,102115.78
2023-02-11T23:48:40.666Z,102115.13
2023-02-11T23:53:43.053Z,102123.84
2023-02-11T23:58:44.537Z,102087.38
